sensor_id;sensor_type;location;lat;lon;timestamp;pressure;altitude;pressure_sealevel;temperature;humidity
64679;BME280;51094;53.864;27.676;2022-12-07T00:01:20;99146.13;;;-4.44;83.09
64679;BME280;51094;53.864;27.676;2022-12-07T00:03:49;99084.03;;;-4.84;83.18
64679;BME280;51094;53.864;27.676;2022-12-07T00:06:17;99141.81;;;-4.39;82.98
64679;BME280;51094;53.864;27.676;2022-12-07T00:08:44;99139.28;;;-4.37;83.09
64679;BME280;51094;53.864;27.676;2022-12-07T00:11:14;99146.03;;;-4.36;82.22
64679;BME280;51094;53.864;27.676;2022-12-07T00:13:41;98926.13;;;-5.64;83.02
64679;BME280;51094;53.864;27.676;2022-12-07T00:18:37;99061.16;;;-4.81;82.59
64679;BME280;51094;53.864;27.676;2022-12-07T00:21:10;99046.94;;;-4.93;82.39
64679;BME280;51094;53.864;27.676;2022-12-07T00:23:38;99129.16;;;-4.42;82.64
64679;BME280;51094;53.864;27.676;2022-12-07T00:26:17;99133.41;;;-4.42;82.52
64679;BME280;51094;53.864;27.676;2022-12-07T00:28:46;98944.56;;;-5.55;82.31
64679;BME280;51094;53.864;27.676;2022-12-07T00:31:17;99051.19;;;-4.96;82.68
64679;BME280;51094;53.864;27.676;2022-12-07T00:33:47;99119.13;;;-4.49;83.05
64679;BME280;51094;53.864;27.676;2022-12-07T00:36:17;99094.78;;;-4.67;82.94
64679;BME280;51094;53.864;27.676;2022-12-07T00:38:51;99010.94;;;-5.22;82.89
64679;BME280;51094;53.864;27.676;2022-12-07T00:41:21;99093.91;;;-4.63;83.25
64679;BME280;51094;53.864;27.676;2022-12-07T00:43:49;99112.25;;;-4.41;83.25
64679;BME280;51094;53.864;27.676;2022-12-07T00:46:17;98945.59;;;-5.70;83.42
64679;BME280;51094;53.864;27.676;2022-12-07T00:48:45;98978.94;;;-5.32;83.16
64679;BME280;51094;53.864;27.676;2022-12-07T00:51:13;99117.47;;;-4.53;82.62
64679;BME280;51094;53.864;27.676;2022-12-07T00:53:41;99089.56;;;-4.53;82.94
64679;BME280;51094;53.864;27.676;2022-12-07T00:56:10;98962.94;;;-5.36;82.77
64679;BME280;51094;53.864;27.676;2022-12-07T00:58:38;99083.72;;;-4.61;83.52
64679;BME280;51094;53.864;27.676;2022-12-07T01:01:06;98957.88;;;-5.38;83.74
64679;BME280;51094;53.864;27.676;2022-12-07T01:03:33;98998.03;;;-5.06;84.06
64679;BME280;51094;53.864;27.676;2022-12-07T01:06:00;99106.50;;;-4.55;83.49
64679;BME280;51094;53.864;27.676;2022-12-07T01:08:28;98935.91;;;-5.36;83.50
64679;BME280;51094;53.864;27.676;2022-12-07T01:11:15;99023.22;;;-4.90;83.87
64679;BME280;51094;53.864;27.676;2022-12-07T01:13:43;99089.53;;;-4.50;83.50
64679;BME280;51094;53.864;27.676;2022-12-07T01:16:13;99105.59;;;-4.51;84.22
64679;BME280;51094;53.864;27.676;2022-12-07T01:18:41;99074.22;;;-4.44;84.34
64679;BME280;51094;53.864;27.676;2022-12-07T01:21:12;99058.91;;;-4.38;83.85
64679;BME280;51094;53.864;27.676;2022-12-07T01:23:39;98930.66;;;-5.20;84.19
64679;BME280;51094;53.864;27.676;2022-12-07T01:26:09;98946.59;;;-5.14;83.56
64679;BME280;51094;53.864;27.676;2022-12-07T01:28:37;98911.41;;;-5.37;83.03
64679;BME280;51094;53.864;27.676;2022-12-07T01:31:10;99006.25;;;-4.84;83.68
64679;BME280;51094;53.864;27.676;2022-12-07T01:33:45;98765.75;;;-6.37;83.87
64679;BME280;51094;53.864;27.676;2022-12-07T01:38:49;98929.41;;;-5.61;85.24
64679;BME280;51094;53.864;27.676;2022-12-07T01:41:18;98916.03;;;-5.69;86.18
64679;BME280;51094;53.864;27.676;2022-12-07T01:46:34;99076.97;;;-4.61;87.14
64679;BME280;51094;53.864;27.676;2022-12-07T01:49:06;98809.38;;;-6.14;86.76
64679;BME280;51094;53.864;27.676;2022-12-07T01:51:36;99060.19;;;-4.73;86.62
64679;BME280;51094;53.864;27.676;2022-12-07T01:54:05;99039.00;;;-4.69;87.52
64679;BME280;51094;53.864;27.676;2022-12-07T01:56:33;98853.72;;;-5.85;86.49
64679;BME280;51094;53.864;27.676;2022-12-07T01:59:00;98911.50;;;-5.44;87.30
64679;BME280;51094;53.864;27.676;2022-12-07T02:01:27;98905.66;;;-5.51;86.96
64679;BME280;51094;53.864;27.676;2022-12-07T02:03:55;98790.16;;;-6.31;86.71
64679;BME280;51094;53.864;27.676;2022-12-07T02:06:24;99022.97;;;-4.72;87.24
64679;BME280;51094;53.864;27.676;2022-12-07T02:08:52;99033.13;;;-4.72;87.33
64679;BME280;51094;53.864;27.676;2022-12-07T02:11:19;99037.38;;;-4.74;87.65
64679;BME280;51094;53.864;27.676;2022-12-07T02:13:46;99017.00;;;-4.68;87.65
64679;BME280;51094;53.864;27.676;2022-12-07T02:19:04;99014.41;;;-4.63;86.87
64679;BME280;51094;53.864;27.676;2022-12-07T02:21:53;98973.34;;;-4.90;87.19
64679;BME280;51094;53.864;27.676;2022-12-07T02:29:24;98977.47;;;-4.83;87.04
64679;BME280;51094;53.864;27.676;2022-12-07T02:34:52;99007.63;;;-4.63;87.45
64679;BME280;51094;53.864;27.676;2022-12-07T02:37:27;98991.53;;;-4.60;86.45
64679;BME280;51094;53.864;27.676;2022-12-07T02:40:04;98813.88;;;-5.68;86.65
64679;BME280;51094;53.864;27.676;2022-12-07T02:42:43;98959.84;;;-4.92;86.53
64679;BME280;51094;53.864;27.676;2022-12-07T02:45:14;99000.06;;;-4.66;87.11
64679;BME280;51094;53.864;27.676;2022-12-07T02:47:44;98874.13;;;-5.27;87.05
64679;BME280;51094;53.864;27.676;2022-12-07T02:50:13;98988.13;;;-4.58;86.41
64679;BME280;51094;53.864;27.676;2022-12-07T02:52:40;98949.41;;;-4.72;86.78
64679;BME280;51094;53.864;27.676;2022-12-07T02:55:08;98918.28;;;-4.82;86.68
64679;BME280;51094;53.864;27.676;2022-12-07T03:00:26;98935.91;;;-4.74;86.48
64679;BME280;51094;53.864;27.676;2022-12-07T03:05:40;98960.75;;;-4.38;86.51
64679;BME280;51094;53.864;27.676;2022-12-07T03:08:24;98976.06;;;-4.42;85.47
64679;BME280;51094;53.864;27.676;2022-12-07T03:10:59;98960.84;;;-4.44;85.56
64679;BME280;51094;53.864;27.676;2022-12-07T03:13:47;98635.91;;;-6.38;86.25
64679;BME280;51094;53.864;27.676;2022-12-07T03:16:18;98778.19;;;-5.53;86.20
64679;BME280;51094;53.864;27.676;2022-12-07T03:18:55;98868.75;;;-5.06;86.42
64679;BME280;51094;53.864;27.676;2022-12-07T03:21:27;99013.25;;;-4.41;85.80
64679;BME280;51094;53.864;27.676;2022-12-07T03:23:57;98939.66;;;-4.41;85.53
64679;BME280;51094;53.864;27.676;2022-12-07T03:26:31;98768.78;;;-5.45;85.71
64679;BME280;51094;53.864;27.676;2022-12-07T03:29:08;98878.41;;;-4.75;85.23
64679;BME280;51094;53.864;27.676;2022-12-07T03:31:40;98985.25;;;-4.35;86.00
64679;BME280;51094;53.864;27.676;2022-12-07T03:34:19;98792.09;;;-5.21;84.90
64679;BME280;51094;53.864;27.676;2022-12-07T03:36:56;98926.97;;;-4.41;85.47
64679;BME280;51094;53.864;27.676;2022-12-07T03:39:25;98921.03;;;-4.40;84.93
64679;BME280;51094;53.864;27.676;2022-12-07T03:41:54;98870.66;;;-4.66;85.13
64679;BME280;51094;53.864;27.676;2022-12-07T03:44:23;98853.81;;;-4.70;85.19
64679;BME280;51094;53.864;27.676;2022-12-07T03:47:03;98847.28;;;-4.83;85.26
64679;BME280;51094;53.864;27.676;2022-12-07T03:49:40;98750.78;;;-5.26;84.49
64679;BME280;51094;53.864;27.676;2022-12-07T03:52:25;98937.16;;;-4.44;84.16
64679;BME280;51094;53.864;27.676;2022-12-07T03:55:04;98896.66;;;-4.50;84.62
64679;BME280;51094;53.864;27.676;2022-12-07T03:57:33;98638.97;;;-6.14;84.49
64679;BME280;51094;53.864;27.676;2022-12-07T04:00:04;98790.34;;;-5.19;85.69
64679;BME280;51094;53.864;27.676;2022-12-07T04:02:38;98895.69;;;-4.43;86.13
64679;BME280;51094;53.864;27.676;2022-12-07T04:05:05;98887.22;;;-4.42;85.42
64679;BME280;51094;53.864;27.676;2022-12-07T04:07:32;98842.16;;;-4.79;85.55
64679;BME280;51094;53.864;27.676;2022-12-07T04:09:59;98872.81;;;-4.40;85.63
64679;BME280;51094;53.864;27.676;2022-12-07T04:12:26;98890.47;;;-4.34;85.65
64679;BME280;51094;53.864;27.676;2022-12-07T04:14:53;98767.31;;;-5.06;85.56
64679;BME280;51094;53.864;27.676;2022-12-07T04:17:20;98800.81;;;-4.84;85.21
64679;BME280;51094;53.864;27.676;2022-12-07T04:19:46;98579.06;;;-6.14;85.56
64679;BME280;51094;53.864;27.676;2022-12-07T04:22:13;98804.81;;;-4.72;85.59
64679;BME280;51094;53.864;27.676;2022-12-07T04:24:40;98672.34;;;-5.36;85.82
64679;BME280;51094;53.864;27.676;2022-12-07T04:27:07;98855.00;;;-4.39;85.64
64679;BME280;51094;53.864;27.676;2022-12-07T04:29:37;98782.28;;;-4.89;85.66
64679;BME280;51094;53.864;27.676;2022-12-07T04:32:04;98880.03;;;-4.19;85.45
64679;BME280;51094;53.864;27.676;2022-12-07T04:34:30;98806.31;;;-4.60;85.93
64679;BME280;51094;53.864;27.676;2022-12-07T04:36:57;98672.38;;;-5.37;86.35
64679;BME280;51094;53.864;27.676;2022-12-07T04:39:32;98861.34;;;-4.15;87.18
64679;BME280;51094;53.864;27.676;2022-12-07T04:42:00;98853.69;;;-4.13;86.77
64679;BME280;51094;53.864;27.676;2022-12-07T04:44:28;98800.44;;;-4.64;85.55
64679;BME280;51094;53.864;27.676;2022-12-07T04:46:55;98634.75;;;-5.61;86.18
64679;BME280;51094;53.864;27.676;2022-12-07T04:49:24;98813.09;;;-4.61;85.95
64679;BME280;51094;53.864;27.676;2022-12-07T04:51:51;98634.69;;;-5.57;86.13
64679;BME280;51094;53.864;27.676;2022-12-07T04:54:18;98853.94;;;-4.27;85.97
64679;BME280;51094;53.864;27.676;2022-12-07T04:56:45;98844.66;;;-4.29;85.65
64679;BME280;51094;53.864;27.676;2022-12-07T04:59:15;98842.25;;;-4.34;85.48
64679;BME280;51094;53.864;27.676;2022-12-07T05:01:42;98805.34;;;-4.53;85.57
64679;BME280;51094;53.864;27.676;2022-12-07T05:04:12;98827.28;;;-4.49;86.06
64679;BME280;51094;53.864;27.676;2022-12-07T05:06:39;98626.31;;;-5.62;86.37
64679;BME280;51094;53.864;27.676;2022-12-07T05:09:06;98840.38;;;-4.26;86.15
64679;BME280;51094;53.864;27.676;2022-12-07T05:11:33;98765.81;;;-4.66;86.62
64679;BME280;51094;53.864;27.676;2022-12-07T05:16:39;98786.72;;;-4.52;86.20
64679;BME280;51094;53.864;27.676;2022-12-07T05:19:06;98685.56;;;-5.18;86.46
64679;BME280;51094;53.864;27.676;2022-12-07T05:21:33;98603.53;;;-5.62;86.85
64679;BME280;51094;53.864;27.676;2022-12-07T05:24:01;98794.44;;;-4.58;86.25
64679;BME280;51094;53.864;27.676;2022-12-07T05:26:28;98775.38;;;-4.79;87.45
64679;BME280;51094;53.864;27.676;2022-12-07T05:28:56;98786.78;;;-4.55;86.18
64679;BME280;51094;53.864;27.676;2022-12-07T05:31:24;98732.38;;;-4.87;86.83
64679;BME280;51094;53.864;27.676;2022-12-07T05:33:51;98825.16;;;-4.26;87.74
64679;BME280;51094;53.864;27.676;2022-12-07T05:36:18;98814.97;;;-4.24;87.10
64679;BME280;51094;53.864;27.676;2022-12-07T05:38:45;98819.28;;;-4.29;86.97
64679;BME280;51094;53.864;27.676;2022-12-07T05:41:17;98771.50;;;-4.52;86.98
64679;BME280;51094;53.864;27.676;2022-12-07T05:44:02;98815.97;;;-4.33;87.25
64679;BME280;51094;53.864;27.676;2022-12-07T05:46:29;98740.03;;;-4.90;87.26
64679;BME280;51094;53.864;27.676;2022-12-07T05:48:56;98811.81;;;-4.36;87.96
64679;BME280;51094;53.864;27.676;2022-12-07T05:51:23;98805.81;;;-4.33;88.14
64679;BME280;51094;53.864;27.676;2022-12-07T05:53:50;98717.31;;;-4.96;87.88
64679;BME280;51094;53.864;27.676;2022-12-07T05:56:16;98805.06;;;-4.37;87.84
64679;BME280;51094;53.864;27.676;2022-12-07T05:58:43;98802.50;;;-4.35;88.10
64679;BME280;51094;53.864;27.676;2022-12-07T06:01:29;98765.63;;;-4.54;88.04
64679;BME280;51094;53.864;27.676;2022-12-07T06:03:56;98793.91;;;-4.29;88.67
64679;BME280;51094;53.864;27.676;2022-12-07T06:06:23;98560.63;;;-5.70;89.13
64679;BME280;51094;53.864;27.676;2022-12-07T06:08:50;98657.25;;;-4.92;89.07
64679;BME280;51094;53.864;27.676;2022-12-07T06:11:17;98584.56;;;-5.40;89.07
64679;BME280;51094;53.864;27.676;2022-12-07T06:14:03;98784.38;;;-4.18;88.19
64679;BME280;51094;53.864;27.676;2022-12-07T06:16:30;98725.81;;;-4.52;88.72
64679;BME280;51094;53.864;27.676;2022-12-07T06:18:56;98781.00;;;-4.19;88.83
64679;BME280;51094;53.864;27.676;2022-12-07T06:21:23;98740.03;;;-4.42;88.30
64679;BME280;51094;53.864;27.676;2022-12-07T06:23:52;98775.84;;;-4.14;88.51
64679;BME280;51094;53.864;27.676;2022-12-07T06:26:20;98654.69;;;-4.91;88.12
64679;BME280;51094;53.864;27.676;2022-12-07T06:28:47;98770.09;;;-4.24;87.79
64679;BME280;51094;53.864;27.676;2022-12-07T06:31:14;98663.19;;;-4.95;87.84
64679;BME280;51094;53.864;27.676;2022-12-07T06:33:41;98773.50;;;-4.25;88.07
64679;BME280;51094;53.864;27.676;2022-12-07T06:36:09;98596.59;;;-5.51;87.85
64679;BME280;51094;53.864;27.676;2022-12-07T06:38:36;98746.78;;;-4.41;87.86
64679;BME280;51094;53.864;27.676;2022-12-07T06:41:03;98775.09;;;-4.19;88.08
64679;BME280;51094;53.864;27.676;2022-12-07T06:43:30;98690.91;;;-4.84;87.98
64679;BME280;51094;53.864;27.676;2022-12-07T06:45:56;98767.44;;;-4.16;87.33
64679;BME280;51094;53.864;27.676;2022-12-07T06:48:23;98776.69;;;-4.14;88.00
64679;BME280;51094;53.864;27.676;2022-12-07T06:50:50;98707.84;;;-4.40;87.70
64679;BME280;51094;53.864;27.676;2022-12-07T06:53:22;98765.50;;;-4.04;88.01
64679;BME280;51094;53.864;27.676;2022-12-07T06:55:49;98772.16;;;-3.98;87.61
64679;BME280;51094;53.864;27.676;2022-12-07T06:58:16;98708.16;;;-4.58;87.05
64679;BME280;51094;53.864;27.676;2022-12-07T07:00:44;98683.84;;;-4.70;86.72
64679;BME280;51094;53.864;27.676;2022-12-07T07:03:11;98679.69;;;-4.73;87.07
64679;BME280;51094;53.864;27.676;2022-12-07T07:05:37;98722.81;;;-4.29;87.31
64679;BME280;51094;53.864;27.676;2022-12-07T07:08:04;98590.75;;;-5.08;87.12
64679;BME280;51094;53.864;27.676;2022-12-07T07:10:49;98686.44;;;-4.72;86.47
64679;BME280;51094;53.864;27.676;2022-12-07T07:13:17;98752.03;;;-4.07;86.70
64679;BME280;51094;53.864;27.676;2022-12-07T07:15:44;98750.47;;;-4.14;85.99
64679;BME280;51094;53.864;27.676;2022-12-07T07:18:11;98635.91;;;-4.81;87.10
64679;BME280;51094;53.864;27.676;2022-12-07T07:20:38;98502.09;;;-5.56;86.12
64679;BME280;51094;53.864;27.676;2022-12-07T07:23:05;98648.31;;;-4.69;86.56
64679;BME280;51094;53.864;27.676;2022-12-07T07:25:33;98618.84;;;-4.76;87.10
64679;BME280;51094;53.864;27.676;2022-12-07T07:28:00;98670.78;;;-4.49;87.00
64679;BME280;51094;53.864;27.676;2022-12-07T07:30:27;98609.56;;;-4.75;86.87
64679;BME280;51094;53.864;27.676;2022-12-07T07:33:01;98737.22;;;-3.88;87.02
64679;BME280;51094;53.864;27.676;2022-12-07T07:35:30;98641.53;;;-4.68;86.94
64679;BME280;51094;53.864;27.676;2022-12-07T07:37:57;98728.09;;;-3.95;86.87
64679;BME280;51094;53.864;27.676;2022-12-07T07:40:25;98572.66;;;-4.90;87.39
64679;BME280;51094;53.864;27.676;2022-12-07T07:42:53;98723.06;;;-3.98;86.92
64679;BME280;51094;53.864;27.676;2022-12-07T07:45:22;98732.28;;;-3.94;87.27
64679;BME280;51094;53.864;27.676;2022-12-07T07:47:49;98630.19;;;-4.49;87.42
64679;BME280;51094;53.864;27.676;2022-12-07T07:50:16;98725.47;;;-3.92;86.96
64679;BME280;51094;53.864;27.676;2022-12-07T07:52:43;98724.41;;;-3.82;88.54
64679;BME280;51094;53.864;27.676;2022-12-07T07:55:12;98493.91;;;-5.24;87.64
64679;BME280;51094;53.864;27.676;2022-12-07T07:57:39;98628.66;;;-4.17;88.32
64679;BME280;51094;53.864;27.676;2022-12-07T08:00:09;98712.34;;;-3.73;87.60
64679;BME280;51094;53.864;27.676;2022-12-07T08:02:40;98683.97;;;-3.91;87.43
64679;BME280;51094;53.864;27.676;2022-12-07T08:05:07;98724.16;;;-3.72;87.03
64679;BME280;51094;53.864;27.676;2022-12-07T08:07:35;98707.50;;;-3.85;86.18
64679;BME280;51094;53.864;27.676;2022-12-07T08:10:02;98715.19;;;-3.88;87.16
64679;BME280;51094;53.864;27.676;2022-12-07T08:12:30;98692.47;;;-3.92;86.78
64679;BME280;51094;53.864;27.676;2022-12-07T08:14:57;98723.59;;;-3.84;87.49
64679;BME280;51094;53.864;27.676;2022-12-07T08:17:24;98685.59;;;-3.89;87.63
64679;BME280;51094;53.864;27.676;2022-12-07T08:19:57;98710.69;;;-3.75;87.46
64679;BME280;51094;53.864;27.676;2022-12-07T08:22:27;98605.47;;;-4.41;86.39
64679;BME280;51094;53.864;27.676;2022-12-07T08:24:54;98670.88;;;-4.13;86.61
64679;BME280;51094;53.864;27.676;2022-12-07T08:27:21;98525.34;;;-4.91;88.43
64679;BME280;51094;53.864;27.676;2022-12-07T08:29:50;98651.38;;;-4.11;87.64
64679;BME280;51094;53.864;27.676;2022-12-07T08:32:17;98697.09;;;-3.73;89.11
64679;BME280;51094;53.864;27.676;2022-12-07T08:34:43;98701.28;;;-3.70;88.32
64679;BME280;51094;53.864;27.676;2022-12-07T08:37:10;98696.44;;;-3.82;87.55
64679;BME280;51094;53.864;27.676;2022-12-07T08:39:37;98689.59;;;-3.79;88.62
64679;BME280;51094;53.864;27.676;2022-12-07T08:42:04;98650.28;;;-3.99;88.21
64679;BME280;51094;53.864;27.676;2022-12-07T08:44:31;98469.03;;;-5.07;88.15
64679;BME280;51094;53.864;27.676;2022-12-07T08:47:02;98680.22;;;-3.75;88.73
64679;BME280;51094;53.864;27.676;2022-12-07T08:49:37;98676.19;;;-3.85;87.76
64679;BME280;51094;53.864;27.676;2022-12-07T08:52:05;98668.06;;;-3.99;86.95
64679;BME280;51094;53.864;27.676;2022-12-07T08:54:34;98587.75;;;-4.84;87.69
64679;BME280;51094;53.864;27.676;2022-12-07T08:57:03;98615.66;;;-4.42;88.21
64679;BME280;51094;53.864;27.676;2022-12-07T08:59:30;98655.56;;;-4.09;88.50
64679;BME280;51094;53.864;27.676;2022-12-07T09:01:57;98517.19;;;-5.05;87.68
64679;BME280;51094;53.864;27.676;2022-12-07T09:04:24;98556.13;;;-4.68;88.14
64679;BME280;51094;53.864;27.676;2022-12-07T09:06:51;98555.06;;;-4.57;88.15
64679;BME280;51094;53.864;27.676;2022-12-07T09:09:17;98330.75;;;-5.98;88.93
64679;BME280;51094;53.864;27.676;2022-12-07T09:11:44;98549.44;;;-4.72;87.90
64679;BME280;51094;53.864;27.676;2022-12-07T09:14:12;98500.03;;;-4.92;88.14
64679;BME280;51094;53.864;27.676;2022-12-07T09:16:39;98634.44;;;-4.11;88.60
64679;BME280;51094;53.864;27.676;2022-12-07T09:19:07;98635.31;;;-4.12;88.82
64679;BME280;51094;53.864;27.676;2022-12-07T09:21:34;98636.38;;;-4.22;88.26
64679;BME280;51094;53.864;27.676;2022-12-07T09:24:00;98625.31;;;-4.19;87.88
64679;BME280;51094;53.864;27.676;2022-12-07T09:26:27;98629.72;;;-4.27;87.79
64679;BME280;51094;53.864;27.676;2022-12-07T09:28:54;98622.13;;;-4.29;88.22
64679;BME280;51094;53.864;27.676;2022-12-07T09:31:20;98592.88;;;-4.45;89.16
64679;BME280;51094;53.864;27.676;2022-12-07T09:33:55;98617.00;;;-4.26;88.01
64679;BME280;51094;53.864;27.676;2022-12-07T09:36:22;98523.19;;;-4.69;88.78
64679;BME280;51094;53.864;27.676;2022-12-07T09:38:49;98474.03;;;-5.02;88.25
64679;BME280;51094;53.864;27.676;2022-12-07T09:41:16;98601.53;;;-4.15;88.56
64679;BME280;51094;53.864;27.676;2022-12-07T09:43:43;98597.28;;;-4.15;88.59
64679;BME280;51094;53.864;27.676;2022-12-07T09:46:15;98523.31;;;-4.75;88.54
64679;BME280;51094;53.864;27.676;2022-12-07T09:48:44;98636.81;;;-4.03;89.18
64679;BME280;51094;53.864;27.676;2022-12-07T09:51:18;98557.00;;;-4.30;89.27
64679;BME280;51094;53.864;27.676;2022-12-07T09:53:55;98479.88;;;-4.60;88.41
64679;BME280;51094;53.864;27.676;2022-12-07T09:56:23;98467.47;;;-4.74;87.70
64679;BME280;51094;53.864;27.676;2022-12-07T09:58:58;98619.88;;;-4.03;88.16
64679;BME280;51094;53.864;27.676;2022-12-07T10:01:29;98440.25;;;-5.04;88.54
64679;BME280;51094;53.864;27.676;2022-12-07T10:04:20;98524.59;;;-4.19;88.30
64679;BME280;51094;53.864;27.676;2022-12-07T10:06:48;98448.28;;;-4.84;87.41
64679;BME280;51094;53.864;27.676;2022-12-07T10:09:19;98466.94;;;-4.49;88.08
64679;BME280;51094;53.864;27.676;2022-12-07T10:12:07;98631.09;;;-3.76;87.91
64679;BME280;51094;53.864;27.676;2022-12-07T10:14:38;98532.91;;;-4.12;87.36
64679;BME280;51094;53.864;27.676;2022-12-07T10:17:33;98564.13;;;-3.73;86.96
64679;BME280;51094;53.864;27.676;2022-12-07T10:23:05;98402.69;;;-4.87;88.01
64679;BME280;51094;53.864;27.676;2022-12-07T10:25:36;98549.66;;;-3.70;86.98
64679;BME280;51094;53.864;27.676;2022-12-07T10:30:53;98545.91;;;-3.55;86.98
64679;BME280;51094;53.864;27.676;2022-12-07T10:35:56;98545.78;;;-3.50;87.36
64679;BME280;51094;53.864;27.676;2022-12-07T10:38:25;98536.84;;;-3.65;86.67
64679;BME280;51094;53.864;27.676;2022-12-07T10:41:05;98429.38;;;-4.01;87.14
64679;BME280;51094;53.864;27.676;2022-12-07T10:43:31;98380.59;;;-4.46;85.56
64679;BME280;51094;53.864;27.676;2022-12-07T10:46:30;98525.53;;;-3.53;86.54
64679;BME280;51094;53.864;27.676;2022-12-07T10:49:55;98442.03;;;-3.99;86.56
64679;BME280;51094;53.864;27.676;2022-12-07T10:52:22;98520.94;;;-3.41;86.25
64679;BME280;51094;53.864;27.676;2022-12-07T10:55:23;98522.22;;;-3.24;86.97
64679;BME280;51094;53.864;27.676;2022-12-07T10:58:03;98327.69;;;-4.29;86.04
64679;BME280;51094;53.864;27.676;2022-12-07T11:00:43;98514.88;;;-3.04;86.47
64679;BME280;51094;53.864;27.676;2022-12-07T11:06:20;98494.13;;;-3.20;87.18
64679;BME280;51094;53.864;27.676;2022-12-07T11:14:52;98232.88;;;-5.24;86.79
64679;BME280;51094;53.864;27.676;2022-12-07T11:24:04;98502.28;;;-3.72;87.03
64679;BME280;51094;53.864;27.676;2022-12-07T11:26:55;98425.41;;;-4.45;86.31
64679;BME280;51094;53.864;27.676;2022-12-07T11:35:11;98491.34;;;-3.74;87.57
64679;BME280;51094;53.864;27.676;2022-12-07T11:37:42;98357.75;;;-4.46;87.44
64679;BME280;51094;53.864;27.676;2022-12-07T11:40:20;98485.25;;;-3.69;87.98
64679;BME280;51094;53.864;27.676;2022-12-07T11:43:05;98480.09;;;-3.65;87.86
64679;BME280;51094;53.864;27.676;2022-12-07T11:45:41;98434.56;;;-3.73;88.58
64679;BME280;51094;53.864;27.676;2022-12-07T11:48:16;98463.22;;;-3.37;88.45
64679;BME280;51094;53.864;27.676;2022-12-07T11:50:55;98459.34;;;-3.19;88.51
64679;BME280;51094;53.864;27.676;2022-12-07T11:53:27;98490.50;;;-3.11;88.17
64679;BME280;51094;53.864;27.676;2022-12-07T11:56:17;98492.25;;;-3.13;87.95
64679;BME280;51094;53.864;27.676;2022-12-07T11:58:55;98455.19;;;-3.22;87.42
64679;BME280;51094;53.864;27.676;2022-12-07T12:01:35;98187.44;;;-4.97;87.99
64679;BME280;51094;53.864;27.676;2022-12-07T12:06:36;98446.81;;;-3.25;88.17
64679;BME280;51094;53.864;27.676;2022-12-07T12:09:12;98415.84;;;-3.40;89.37
64679;BME280;51094;53.864;27.676;2022-12-07T12:15:08;98361.06;;;-3.79;88.04
64679;BME280;51094;53.864;27.676;2022-12-07T12:20:30;98435.91;;;-3.29;88.79
64679;BME280;51094;53.864;27.676;2022-12-07T12:23:09;98394.22;;;-3.53;88.65
64679;BME280;51094;53.864;27.676;2022-12-07T12:25:42;98436.03;;;-3.33;87.69
64679;BME280;51094;53.864;27.676;2022-12-07T12:33:32;98398.47;;;-3.53;88.71
64679;BME280;51094;53.864;27.676;2022-12-07T12:38:52;98420.91;;;-3.38;88.25
64679;BME280;51094;53.864;27.676;2022-12-07T12:51:54;98424.47;;;-3.45;88.56
64679;BME280;51094;53.864;27.676;2022-12-07T12:54:24;98399.03;;;-3.44;88.93
64679;BME280;51094;53.864;27.676;2022-12-07T12:57:09;98330.75;;;-3.85;88.97
64679;BME280;51094;53.864;27.676;2022-12-07T12:59:57;98320.41;;;-3.79;88.70
64679;BME280;51094;53.864;27.676;2022-12-07T13:02:50;98392.75;;;-3.32;88.68
64679;BME280;51094;53.864;27.676;2022-12-07T13:05:23;98357.81;;;-3.84;88.47
64679;BME280;51094;53.864;27.676;2022-12-07T13:07:54;98398.63;;;-3.30;88.19
64679;BME280;51094;53.864;27.676;2022-12-07T13:18:39;98400.34;;;-3.30;88.37
64679;BME280;51094;53.864;27.676;2022-12-07T13:26:37;98368.72;;;-3.50;88.73
64679;BME280;51094;53.864;27.676;2022-12-07T13:29:17;98384.25;;;-3.31;89.75
64679;BME280;51094;53.864;27.676;2022-12-07T13:31:49;98386.84;;;-3.32;89.01
64679;BME280;51094;53.864;27.676;2022-12-07T13:34:38;98310.09;;;-3.73;89.21
64679;BME280;51094;53.864;27.676;2022-12-07T13:37:17;98181.34;;;-4.59;88.04
64679;BME280;51094;53.864;27.676;2022-12-07T13:39:58;98312.28;;;-3.90;88.98
64679;BME280;51094;53.864;27.676;2022-12-07T13:42:32;98329.38;;;-3.66;90.32
64679;BME280;51094;53.864;27.676;2022-12-07T13:45:20;98321.66;;;-3.63;90.41
64679;BME280;51094;53.864;27.676;2022-12-07T13:47:56;98283.66;;;-3.95;89.77
64679;BME280;51094;53.864;27.676;2022-12-07T13:50:30;98371.06;;;-3.44;89.98
64679;BME280;51094;53.864;27.676;2022-12-07T13:52:59;98325.91;;;-3.63;90.09
64679;BME280;51094;53.864;27.676;2022-12-07T13:55:29;98372.47;;;-3.33;90.04
64679;BME280;51094;53.864;27.676;2022-12-07T13:57:57;98327.53;;;-3.61;89.45
64679;BME280;51094;53.864;27.676;2022-12-07T14:00:28;98366.59;;;-3.36;90.13
64679;BME280;51094;53.864;27.676;2022-12-07T14:03:04;98315.25;;;-3.76;89.96
64679;BME280;51094;53.864;27.676;2022-12-07T14:06:04;98311.97;;;-3.80;90.54
64679;BME280;51094;53.864;27.676;2022-12-07T14:08:31;98357.00;;;-3.26;90.13
64679;BME280;51094;53.864;27.676;2022-12-07T14:10:59;98280.53;;;-3.76;90.47
64679;BME280;51094;53.864;27.676;2022-12-07T14:13:36;98356.25;;;-3.29;91.11
64679;BME280;51094;53.864;27.676;2022-12-07T14:16:30;98205.69;;;-4.23;90.62
64679;BME280;51094;53.864;27.676;2022-12-07T14:19:00;98363.19;;;-3.35;90.49
64679;BME280;51094;53.864;27.676;2022-12-07T14:21:28;98361.44;;;-3.32;90.97
64679;BME280;51094;53.864;27.676;2022-12-07T14:24:16;98290.34;;;-3.63;91.47
64679;BME280;51094;53.864;27.676;2022-12-07T14:26:48;98391.06;;;-3.31;92.05
64679;BME280;51094;53.864;27.676;2022-12-07T14:29:30;98338.13;;;-3.47;92.14
64679;BME280;51094;53.864;27.676;2022-12-07T14:32:04;98281.66;;;-3.56;91.58
64679;BME280;51094;53.864;27.676;2022-12-07T14:34:40;98325.78;;;-3.31;91.96
64679;BME280;51094;53.864;27.676;2022-12-07T14:37:11;98338.41;;;-3.28;91.98
64679;BME280;51094;53.864;27.676;2022-12-07T14:39:39;98145.28;;;-4.40;92.75
64679;BME280;51094;53.864;27.676;2022-12-07T14:42:07;98211.19;;;-4.07;93.12
64679;BME280;51094;53.864;27.676;2022-12-07T14:44:33;98217.88;;;-3.77;92.62
64679;BME280;51094;53.864;27.676;2022-12-07T14:47:01;98284.41;;;-3.36;92.59
64679;BME280;51094;53.864;27.676;2022-12-07T14:49:48;98323.44;;;-3.09;93.01